sensor_id;sensor_type;location;lat;lon;timestamp;P1;durP1;ratioP1;P2;durP2;ratioP2
14013;SDS011;49110;52.584;13.408;2023-05-07T00:00:32;13.97;;;11.70;;
14013;SDS011;49110;52.584;13.408;2023-05-07T00:01:33;14.53;;;12.10;;
14013;SDS011;49110;52.584;13.408;2023-05-07T00:02:34;13.10;;;11.80;;
14013;SDS011;49110;52.584;13.408;2023-05-07T00:03:35;13.43;;;11.23;;
14013;SDS011;49110;52.584;13.408;2023-05-07T00:04:36;12.90;;;11.40;;
14013;SDS011;49110;52.584;13.408;2023-05-07T00:05:38;12.80;;;11.53;;
14013;SDS011;49110;52.584;13.408;2023-05-07T00:06:39;12.83;;;11.60;;
14013;SDS011;49110;52.584;13.408;2023-05-07T00:07:40;12.70;;;11.47;;
14013;SDS011;49110;52.584;13.408;2023-05-07T00:08:40;13.47;;;12.10;;
14013;SDS011;49110;52.584;13.408;2023-05-07T00:09:41;14.83;;;12.27;;
14013;SDS011;49110;52.584;13.408;2023-05-07T00:10:41;13.67;;;11.97;;
14013;SDS011;49110;52.584;13.408;2023-05-07T00:11:42;12.87;;;11.70;;
14013;SDS011;49110;52.584;13.408;2023-05-07T00:12:43;12.33;;;11.23;;
14013;SDS011;49110;52.584;13.408;2023-05-07T00:13:43;12.20;;;11.10;;
14013;SDS011;49110;52.584;13.408;2023-05-07T00:14:43;13.33;;;11.30;;
14013;SDS011;49110;52.584;13.408;2023-05-07T00:15:45;12.50;;;11.30;;
14013;SDS011;49110;52.584;13.408;2023-05-07T00:16:45;12.17;;;11.07;;
14013;SDS011;49110;52.584;13.408;2023-05-07T00:17:46;12.00;;;10.90;;
14013;SDS011;49110;52.584;13.408;2023-05-07T00:18:46;13.20;;;11.60;;
14013;SDS011;49110;52.584;13.408;2023-05-07T00:19:47;13.70;;;11.80;;
14013;SDS011;49110;52.584;13.408;2023-05-07T00:20:47;12.60;;;11.40;;
14013;SDS011;49110;52.584;13.408;2023-05-07T00:21:48;12.53;;;11.33;;
14013;SDS011;49110;52.584;13.408;2023-05-07T00:22:48;12.83;;;11.63;;
14013;SDS011;49110;52.584;13.408;2023-05-07T00:23:49;12.67;;;11.47;;
14013;SDS011;49110;52.584;13.408;2023-05-07T00:24:49;13.13;;;11.93;;
14013;SDS011;49110;52.584;13.408;2023-05-07T00:25:50;14.20;;;12.70;;
14013;SDS011;49110;52.584;13.408;2023-05-07T00:26:50;13.20;;;11.43;;
14013;SDS011;49110;52.584;13.408;2023-05-07T00:27:51;13.20;;;12.07;;
14013;SDS011;49110;52.584;13.408;2023-05-07T00:28:51;13.47;;;12.20;;
14013;SDS011;49110;52.584;13.408;2023-05-07T00:29:52;12.50;;;11.33;;
14013;SDS011;49110;52.584;13.408;2023-05-07T00:30:52;13.00;;;11.70;;
14013;SDS011;49110;52.584;13.408;2023-05-07T00:31:53;15.50;;;11.73;;
14013;SDS011;49110;52.584;13.408;2023-05-07T00:32:54;13.73;;;12.33;;
14013;SDS011;49110;52.584;13.408;2023-05-07T00:33:55;12.90;;;11.60;;
14013;SDS011;49110;52.584;13.408;2023-05-07T00:34:55;13.20;;;11.90;;
14013;SDS011;49110;52.584;13.408;2023-05-07T00:35:56;13.47;;;12.07;;
14013;SDS011;49110;52.584;13.408;2023-05-07T00:36:56;13.87;;;11.67;;
14013;SDS011;49110;52.584;13.408;2023-05-07T00:37:57;12.60;;;11.33;;
14013;SDS011;49110;52.584;13.408;2023-05-07T00:38:58;12.93;;;11.60;;
14013;SDS011;49110;52.584;13.408;2023-05-07T00:40:00;12.17;;;10.93;;
14013;SDS011;49110;52.584;13.408;2023-05-07T00:41:03;12.93;;;11.50;;
14013;SDS011;49110;52.584;13.408;2023-05-07T00:42:04;12.10;;;11.00;;
14013;SDS011;49110;52.584;13.408;2023-05-07T00:43:04;12.33;;;10.97;;
14013;SDS011;49110;52.584;13.408;2023-05-07T00:44:04;12.50;;;11.13;;
14013;SDS011;49110;52.584;13.408;2023-05-07T00:45:05;13.07;;;11.87;;
14013;SDS011;49110;52.584;13.408;2023-05-07T00:46:07;12.50;;;11.30;;
14013;SDS011;49110;52.584;13.408;2023-05-07T00:47:08;12.13;;;10.93;;
14013;SDS011;49110;52.584;13.408;2023-05-07T00:48:08;12.03;;;10.83;;
14013;SDS011;49110;52.584;13.408;2023-05-07T00:49:09;11.90;;;10.80;;
14013;SDS011;49110;52.584;13.408;2023-05-07T00:50:09;12.63;;;11.33;;
14013;SDS011;49110;52.584;13.408;2023-05-07T00:51:10;11.87;;;10.67;;
14013;SDS011;49110;52.584;13.408;2023-05-07T00:52:13;12.77;;;11.57;;
14013;SDS011;49110;52.584;13.408;2023-05-07T00:53:15;12.40;;;10.90;;
14013;SDS011;49110;52.584;13.408;2023-05-07T00:54:15;12.13;;;10.83;;
14013;SDS011;49110;52.584;13.408;2023-05-07T00:55:16;11.30;;;10.20;;
14013;SDS011;49110;52.584;13.408;2023-05-07T00:56:17;11.97;;;10.80;;
14013;SDS011;49110;52.584;13.408;2023-05-07T00:57:18;11.83;;;10.67;;
14013;SDS011;49110;52.584;13.408;2023-05-07T00:58:21;11.30;;;10.30;;
14013;SDS011;49110;52.584;13.408;2023-05-07T00:59:21;11.83;;;10.70;;
14013;SDS011;49110;52.584;13.408;2023-05-07T01:00:22;12.03;;;10.77;;
14013;SDS011;49110;52.584;13.408;2023-05-07T01:01:22;12.23;;;11.00;;
14013;SDS011;49110;52.584;13.408;2023-05-07T01:02:23;11.93;;;10.73;;
14013;SDS011;49110;52.584;13.408;2023-05-07T01:03:23;11.70;;;10.60;;
14013;SDS011;49110;52.584;13.408;2023-05-07T01:04:24;11.33;;;10.27;;
14013;SDS011;49110;52.584;13.408;2023-05-07T01:05:24;12.13;;;10.70;;
14013;SDS011;49110;52.584;13.408;2023-05-07T01:06:27;11.73;;;10.63;;
14013;SDS011;49110;52.584;13.408;2023-05-07T01:07:29;12.23;;;11.03;;
14013;SDS011;49110;52.584;13.408;2023-05-07T01:08:30;11.30;;;10.30;;
14013;SDS011;49110;52.584;13.408;2023-05-07T01:09:32;11.30;;;10.20;;
14013;SDS011;49110;52.584;13.408;2023-05-07T01:10:35;10.97;;;9.93;;
14013;SDS011;49110;52.584;13.408;2023-05-07T01:11:35;11.67;;;10.47;;
14013;SDS011;49110;52.584;13.408;2023-05-07T01:12:36;11.73;;;10.50;;
14013;SDS011;49110;52.584;13.408;2023-05-07T01:13:38;11.77;;;10.67;;
14013;SDS011;49110;52.584;13.408;2023-05-07T01:14:39;11.27;;;10.27;;
14013;SDS011;49110;52.584;13.408;2023-05-07T01:15:40;11.57;;;10.47;;
14013;SDS011;49110;52.584;13.408;2023-05-07T01:16:41;11.93;;;10.93;;
14013;SDS011;49110;52.584;13.408;2023-05-07T01:17:41;12.10;;;11.10;;
14013;SDS011;49110;52.584;13.408;2023-05-07T01:18:42;12.70;;;10.87;;
14013;SDS011;49110;52.584;13.408;2023-05-07T01:19:43;11.47;;;10.13;;
14013;SDS011;49110;52.584;13.408;2023-05-07T01:20:44;11.50;;;10.50;;
14013;SDS011;49110;52.584;13.408;2023-05-07T01:21:46;11.83;;;10.63;;
14013;SDS011;49110;52.584;13.408;2023-05-07T01:22:47;11.90;;;10.80;;
14013;SDS011;49110;52.584;13.408;2023-05-07T01:23:49;10.80;;;9.83;;
14013;SDS011;49110;52.584;13.408;2023-05-07T01:24:49;11.00;;;10.07;;
14013;SDS011;49110;52.584;13.408;2023-05-07T01:25:51;11.67;;;10.33;;
14013;SDS011;49110;52.584;13.408;2023-05-07T01:26:55;15.27;;;11.00;;
14013;SDS011;49110;52.584;13.408;2023-05-07T01:27:55;11.50;;;10.47;;
14013;SDS011;49110;52.584;13.408;2023-05-07T01:28:56;11.37;;;10.17;;
14013;SDS011;49110;52.584;13.408;2023-05-07T01:29:56;12.03;;;11.00;;
14013;SDS011;49110;52.584;13.408;2023-05-07T01:31:00;11.83;;;10.73;;
14013;SDS011;49110;52.584;13.408;2023-05-07T01:32:03;12.53;;;11.30;;
14013;SDS011;49110;52.584;13.408;2023-05-07T01:33:09;11.40;;;10.30;;
14013;SDS011;49110;52.584;13.408;2023-05-07T01:34:13;10.67;;;9.67;;
14013;SDS011;49110;52.584;13.408;2023-05-07T01:35:17;11.23;;;10.10;;
14013;SDS011;49110;52.584;13.408;2023-05-07T01:36:20;11.63;;;10.63;;
14013;SDS011;49110;52.584;13.408;2023-05-07T01:37:24;12.63;;;10.97;;
14013;SDS011;49110;52.584;13.408;2023-05-07T01:38:25;12.90;;;10.70;;
14013;SDS011;49110;52.584;13.408;2023-05-07T01:39:27;11.20;;;10.20;;
14013;SDS011;49110;52.584;13.408;2023-05-07T01:40:29;11.93;;;10.73;;
14013;SDS011;49110;52.584;13.408;2023-05-07T01:41:30;11.33;;;10.23;;
14013;SDS011;49110;52.584;13.408;2023-05-07T01:42:30;11.90;;;10.33;;
14013;SDS011;49110;52.584;13.408;2023-05-07T01:43:31;12.03;;;10.33;;
14013;SDS011;49110;52.584;13.408;2023-05-07T01:44:32;11.73;;;10.63;;
14013;SDS011;49110;52.584;13.408;2023-05-07T01:45:33;12.07;;;10.97;;
14013;SDS011;49110;52.584;13.408;2023-05-07T01:46:34;11.70;;;10.63;;
14013;SDS011;49110;52.584;13.408;2023-05-07T01:47:36;11.53;;;10.40;;
14013;SDS011;49110;52.584;13.408;2023-05-07T01:48:37;11.30;;;10.30;;
14013;SDS011;49110;52.584;13.408;2023-05-07T01:49:38;11.73;;;10.63;;
14013;SDS011;49110;52.584;13.408;2023-05-07T01:50:38;12.03;;;10.83;;
14013;SDS011;49110;52.584;13.408;2023-05-07T01:51:40;11.80;;;10.47;;
14013;SDS011;49110;52.584;13.408;2023-05-07T01:52:41;11.53;;;10.37;;
14013;SDS011;49110;52.584;13.408;2023-05-07T01:53:41;11.93;;;10.00;;
14013;SDS011;49110;52.584;13.408;2023-05-07T01:54:43;13.13;;;10.10;;
14013;SDS011;49110;52.584;13.408;2023-05-07T01:55:44;11.10;;;10.20;;
14013;SDS011;49110;52.584;13.408;2023-05-07T01:56:45;11.20;;;10.10;;
14013;SDS011;49110;52.584;13.408;2023-05-07T01:57:47;11.30;;;10.20;;
14013;SDS011;49110;52.584;13.408;2023-05-07T01:58:48;10.83;;;9.73;;
14013;SDS011;49110;52.584;13.408;2023-05-07T01:59:49;11.20;;;10.10;;
14013;SDS011;49110;52.584;13.408;2023-05-07T02:00:50;11.50;;;10.30;;
14013;SDS011;49110;52.584;13.408;2023-05-07T02:01:51;10.90;;;9.80;;
14013;SDS011;49110;52.584;13.408;2023-05-07T02:02:51;11.47;;;10.27;;
14013;SDS011;49110;52.584;13.408;2023-05-07T02:03:52;11.33;;;10.17;;
14013;SDS011;49110;52.584;13.408;2023-05-07T02:04:53;11.93;;;10.93;;
14013;SDS011;49110;52.584;13.408;2023-05-07T02:05:54;10.97;;;10.03;;
14013;SDS011;49110;52.584;13.408;2023-05-07T02:06:54;11.27;;;10.17;;
14013;SDS011;49110;52.584;13.408;2023-05-07T02:07:55;11.13;;;10.03;;
14013;SDS011;49110;52.584;13.408;2023-05-07T02:08:56;12.10;;;10.90;;
14013;SDS011;49110;52.584;13.408;2023-05-07T02:09:56;11.57;;;10.37;;
14013;SDS011;49110;52.584;13.408;2023-05-07T02:10:57;11.57;;;10.47;;
14013;SDS011;49110;52.584;13.408;2023-05-07T02:11:57;10.67;;;9.77;;
14013;SDS011;49110;52.584;13.408;2023-05-07T02:12:57;11.63;;;10.43;;
14013;SDS011;49110;52.584;13.408;2023-05-07T02:13:59;10.57;;;9.57;;
14013;SDS011;49110;52.584;13.408;2023-05-07T02:15:00;11.10;;;10.10;;
14013;SDS011;49110;52.584;13.408;2023-05-07T02:16:00;11.30;;;10.17;;
14013;SDS011;49110;52.584;13.408;2023-05-07T02:17:02;11.50;;;10.40;;
14013;SDS011;49110;52.584;13.408;2023-05-07T02:18:03;11.10;;;10.00;;
14013;SDS011;49110;52.584;13.408;2023-05-07T02:19:06;11.60;;;10.50;;
14013;SDS011;49110;52.584;13.408;2023-05-07T02:20:06;11.63;;;10.33;;
14013;SDS011;49110;52.584;13.408;2023-05-07T02:21:13;11.83;;;9.70;;
14013;SDS011;49110;52.584;13.408;2023-05-07T02:22:13;10.93;;;9.87;;
14013;SDS011;49110;52.584;13.408;2023-05-07T02:23:13;10.83;;;9.73;;
14013;SDS011;49110;52.584;13.408;2023-05-07T02:24:14;10.73;;;9.63;;
14013;SDS011;49110;52.584;13.408;2023-05-07T02:25:15;10.77;;;9.67;;
14013;SDS011;49110;52.584;13.408;2023-05-07T02:26:15;10.53;;;9.53;;
14013;SDS011;49110;52.584;13.408;2023-05-07T02:27:16;10.33;;;9.40;;
14013;SDS011;49110;52.584;13.408;2023-05-07T02:28:16;10.70;;;9.70;;
14013;SDS011;49110;52.584;13.408;2023-05-07T02:29:17;12.07;;;10.03;;
14013;SDS011;49110;52.584;13.408;2023-05-07T02:30:17;10.87;;;9.77;;
14013;SDS011;49110;52.584;13.408;2023-05-07T02:31:18;10.77;;;9.70;;
14013;SDS011;49110;52.584;13.408;2023-05-07T02:32:18;10.73;;;9.70;;
14013;SDS011;49110;52.584;13.408;2023-05-07T02:33:19;10.57;;;9.30;;
14013;SDS011;49110;52.584;13.408;2023-05-07T02:34:20;10.23;;;9.13;;
14013;SDS011;49110;52.584;13.408;2023-05-07T02:35:20;10.37;;;9.30;;
14013;SDS011;49110;52.584;13.408;2023-05-07T02:36:21;11.00;;;9.83;;
14013;SDS011;49110;52.584;13.408;2023-05-07T02:37:21;10.30;;;9.30;;
14013;SDS011;49110;52.584;13.408;2023-05-07T02:38:22;10.83;;;9.57;;
14013;SDS011;49110;52.584;13.408;2023-05-07T02:39:23;10.70;;;9.60;;
14013;SDS011;49110;52.584;13.408;2023-05-07T02:40:23;10.67;;;9.67;;
14013;SDS011;49110;52.584;13.408;2023-05-07T02:41:24;10.10;;;9.10;;
14013;SDS011;49110;52.584;13.408;2023-05-07T02:42:24;10.40;;;9.37;;
14013;SDS011;49110;52.584;13.408;2023-05-07T02:43:25;11.00;;;10.00;;
14013;SDS011;49110;52.584;13.408;2023-05-07T02:44:25;9.63;;;8.73;;
14013;SDS011;49110;52.584;13.408;2023-05-07T02:45:26;9.70;;;8.80;;
14013;SDS011;49110;52.584;13.408;2023-05-07T02:46:26;9.60;;;8.60;;
14013;SDS011;49110;52.584;13.408;2023-05-07T02:47:27;10.23;;;9.10;;
14013;SDS011;49110;52.584;13.408;2023-05-07T02:48:28;10.10;;;9.10;;
14013;SDS011;49110;52.584;13.408;2023-05-07T02:49:28;9.87;;;8.87;;
14013;SDS011;49110;52.584;13.408;2023-05-07T02:50:29;9.47;;;8.50;;
14013;SDS011;49110;52.584;13.408;2023-05-07T02:51:30;9.30;;;8.40;;
14013;SDS011;49110;52.584;13.408;2023-05-07T02:52:30;9.40;;;8.60;;
14013;SDS011;49110;52.584;13.408;2023-05-07T02:53:31;9.07;;;8.17;;
14013;SDS011;49110;52.584;13.408;2023-05-07T02:54:32;9.53;;;8.73;;
14013;SDS011;49110;52.584;13.408;2023-05-07T02:55:32;9.53;;;8.53;;
14013;SDS011;49110;52.584;13.408;2023-05-07T02:56:32;9.70;;;8.70;;
14013;SDS011;49110;52.584;13.408;2023-05-07T02:57:33;9.70;;;8.63;;
14013;SDS011;49110;52.584;13.408;2023-05-07T02:58:33;8.80;;;8.00;;
14013;SDS011;49110;52.584;13.408;2023-05-07T02:59:34;9.60;;;8.70;;
14013;SDS011;49110;52.584;13.408;2023-05-07T03:00:34;9.73;;;8.83;;
14013;SDS011;49110;52.584;13.408;2023-05-07T03:01:35;13.00;;;9.43;;
14013;SDS011;49110;52.584;13.408;2023-05-07T03:02:35;9.60;;;8.70;;
14013;SDS011;49110;52.584;13.408;2023-05-07T03:03:36;9.03;;;8.00;;
14013;SDS011;49110;52.584;13.408;2023-05-07T03:04:36;9.30;;;8.40;;
14013;SDS011;49110;52.584;13.408;2023-05-07T03:05:37;9.30;;;8.40;;
14013;SDS011;49110;52.584;13.408;2023-05-07T03:06:38;9.33;;;8.40;;
14013;SDS011;49110;52.584;13.408;2023-05-07T03:07:38;9.00;;;8.10;;
14013;SDS011;49110;52.584;13.408;2023-05-07T03:08:39;8.80;;;8.00;;
14013;SDS011;49110;52.584;13.408;2023-05-07T03:09:40;8.70;;;7.90;;
14013;SDS011;49110;52.584;13.408;2023-05-07T03:10:41;9.00;;;8.20;;
14013;SDS011;49110;52.584;13.408;2023-05-07T03:11:41;8.43;;;7.37;;
14013;SDS011;49110;52.584;13.408;2023-05-07T03:12:42;8.80;;;7.87;;
14013;SDS011;49110;52.584;13.408;2023-05-07T03:13:42;8.67;;;7.87;;
14013;SDS011;49110;52.584;13.408;2023-05-07T03:14:42;8.87;;;8.07;;
14013;SDS011;49110;52.584;13.408;2023-05-07T03:15:43;8.67;;;7.77;;
14013;SDS011;49110;52.584;13.408;2023-05-07T03:16:43;9.37;;;7.87;;
14013;SDS011;49110;52.584;13.408;2023-05-07T03:17:44;9.17;;;7.97;;
14013;SDS011;49110;52.584;13.408;2023-05-07T03:18:44;9.77;;;8.30;;
14013;SDS011;49110;52.584;13.408;2023-05-07T03:19:45;8.80;;;8.00;;
14013;SDS011;49110;52.584;13.408;2023-05-07T03:20:47;12.33;;;8.67;;
14013;SDS011;49110;52.584;13.408;2023-05-07T03:21:48;8.80;;;8.07;;
14013;SDS011;49110;52.584;13.408;2023-05-07T03:22:49;9.07;;;8.30;;
14013;SDS011;49110;52.584;13.408;2023-05-07T03:23:49;9.23;;;8.30;;
14013;SDS011;49110;52.584;13.408;2023-05-07T03:24:50;8.53;;;7.73;;
14013;SDS011;49110;52.584;13.408;2023-05-07T03:25:51;9.00;;;8.10;;
14013;SDS011;49110;52.584;13.408;2023-05-07T03:26:51;8.23;;;7.43;;
14013;SDS011;49110;52.584;13.408;2023-05-07T03:27:51;9.10;;;8.27;;
14013;SDS011;49110;52.584;13.408;2023-05-07T03:28:52;9.33;;;8.43;;
14013;SDS011;49110;52.584;13.408;2023-05-07T03:29:52;9.87;;;8.40;;
14013;SDS011;49110;52.584;13.408;2023-05-07T03:30:53;9.63;;;8.70;;
14013;SDS011;49110;52.584;13.408;2023-05-07T03:31:53;9.17;;;8.07;;
14013;SDS011;49110;52.584;13.408;2023-05-07T03:32:54;10.80;;;8.77;;
14013;SDS011;49110;52.584;13.408;2023-05-07T03:33:55;10.40;;;9.10;;
14013;SDS011;49110;52.584;13.408;2023-05-07T03:34:56;11.83;;;8.70;;
14013;SDS011;49110;52.584;13.408;2023-05-07T03:35:57;10.77;;;9.00;;
14013;SDS011;49110;52.584;13.408;2023-05-07T03:36:57;9.03;;;8.13;;
14013;SDS011;49110;52.584;13.408;2023-05-07T03:37:58;8.97;;;8.07;;
14013;SDS011;49110;52.584;13.408;2023-05-07T03:38:58;9.20;;;8.40;;
14013;SDS011;49110;52.584;13.408;2023-05-07T03:39:59;10.63;;;8.43;;
14013;SDS011;49110;52.584;13.408;2023-05-07T03:40:59;10.43;;;8.40;;
14013;SDS011;49110;52.584;13.408;2023-05-07T03:42:00;9.27;;;8.03;;
14013;SDS011;49110;52.584;13.408;2023-05-07T03:43:01;9.17;;;8.37;;
14013;SDS011;49110;52.584;13.408;2023-05-07T03:44:01;9.53;;;8.63;;
14013;SDS011;49110;52.584;13.408;2023-05-07T03:45:02;8.97;;;8.07;;
14013;SDS011;49110;52.584;13.408;2023-05-07T03:46:02;8.57;;;7.83;;
14013;SDS011;49110;52.584;13.408;2023-05-07T03:47:03;8.80;;;8.00;;
14013;SDS011;49110;52.584;13.408;2023-05-07T03:48:04;8.57;;;7.67;;
14013;SDS011;49110;52.584;13.408;2023-05-07T03:49:05;8.50;;;7.70;;
14013;SDS011;49110;52.584;13.408;2023-05-07T03:50:05;8.87;;;8.00;;
14013;SDS011;49110;52.584;13.408;2023-05-07T03:51:06;8.80;;;8.10;;
14013;SDS011;49110;52.584;13.408;2023-05-07T03:52:06;11.20;;;7.83;;
14013;SDS011;49110;52.584;13.408;2023-05-07T03:53:07;8.50;;;7.70;;
14013;SDS011;49110;52.584;13.408;2023-05-07T03:54:07;8.87;;;8.07;;
14013;SDS011;49110;52.584;13.408;2023-05-07T03:55:08;8.80;;;7.90;;
14013;SDS011;49110;52.584;13.408;2023-05-07T03:56:09;9.00;;;8.10;;
14013;SDS011;49110;52.584;13.408;2023-05-07T03:57:09;9.27;;;8.37;;
14013;SDS011;49110;52.584;13.408;2023-05-07T03:58:10;9.10;;;8.30;;
14013;SDS011;49110;52.584;13.408;2023-05-07T03:59:11;8.37;;;7.57;;
14013;SDS011;49110;52.584;13.408;2023-05-07T04:00:13;9.20;;;8.30;;
14013;SDS011;49110;52.584;13.408;2023-05-07T04:01:13;8.03;;;7.33;;
14013;SDS011;49110;52.584;13.408;2023-05-07T04:02:14;8.87;;;8.07;;
14013;SDS011;49110;52.584;13.408;2023-05-07T04:03:15;9.43;;;7.60;;
14013;SDS011;49110;52.584;13.408;2023-05-07T04:04:15;8.40;;;7.70;;
14013;SDS011;49110;52.584;13.408;2023-05-07T04:05:16;8.63;;;7.93;;
14013;SDS011;49110;52.584;13.408;2023-05-07T04:06:16;9.00;;;8.10;;
14013;SDS011;49110;52.584;13.408;2023-05-07T04:07:17;9.10;;;8.00;;
14013;SDS011;49110;52.584;13.408;2023-05-07T04:08:17;8.17;;;7.47;;
14013;SDS011;49110;52.584;13.408;2023-05-07T04:09:18;8.50;;;7.70;;
14013;SDS011;49110;52.584;13.408;2023-05-07T04:10:18;9.07;;;7.97;;
14013;SDS011;49110;52.584;13.408;2023-05-07T04:11:19;8.50;;;7.70;;
14013;SDS011;49110;52.584;13.408;2023-05-07T04:12:20;9.07;;;7.97;;
14013;SDS011;49110;52.584;13.408;2023-05-07T04:13:20;8.77;;;7.87;;
14013;SDS011;49110;52.584;13.408;2023-05-07T04:14:21;8.20;;;7.20;;
14013;SDS011;49110;52.584;13.408;2023-05-07T04:15:21;8.77;;;7.97;;
14013;SDS011;49110;52.584;13.408;2023-05-07T04:16:22;8.77;;;7.53;;
14013;SDS011;49110;52.584;13.408;2023-05-07T04:17:22;8.30;;;7.60;;
14013;SDS011;49110;52.584;13.408;2023-05-07T04:18:22;9.60;;;7.40;;
14013;SDS011;49110;52.584;13.408;2023-05-07T04:19:23;8.47;;;7.77;;
14013;SDS011;49110;52.584;13.408;2023-05-07T04:20:23;8.00;;;7.30;;
14013;SDS011;49110;52.584;13.408;2023-05-07T04:21:24;8.43;;;7.63;;
14013;SDS011;49110;52.584;13.408;2023-05-07T04:22:26;8.10;;;7.40;;
14013;SDS011;49110;52.584;13.408;2023-05-07T04:23:26;8.90;;;7.80;;
14013;SDS011;49110;52.584;13.408;2023-05-07T04:24:27;8.63;;;7.83;;
14013;SDS011;49110;52.584;13.408;2023-05-07T04:25:30;8.13;;;7.37;;
14013;SDS011;49110;52.584;13.408;2023-05-07T04:26:31;11.03;;;7.37;;
14013;SDS011;49110;52.584;13.408;2023-05-07T04:27:31;8.03;;;7.23;;
14013;SDS011;49110;52.584;13.408;2023-05-07T04:28:32;8.00;;;7.20;;
14013;SDS011;49110;52.584;13.408;2023-05-07T04:29:32;8.77;;;8.00;;
14013;SDS011;49110;52.584;13.408;2023-05-07T04:30:33;8.23;;;7.43;;
14013;SDS011;49110;52.584;13.408;2023-05-07T04:31:33;8.80;;;8.00;;
14013;SDS011;49110;52.584;13.408;2023-05-07T04:32:34;8.60;;;7.80;;
14013;SDS011;49110;52.584;13.408;2023-05-07T04:33:36;8.57;;;7.60;;
14013;SDS011;49110;52.584;13.408;2023-05-07T04:34:36;8.37;;;7.60;;
14013;SDS011;49110;52.584;13.408;2023-05-07T04:35:37;8.20;;;7.40;;
14013;SDS011;49110;52.584;13.408;2023-05-07T04:36:38;8.73;;;7.87;;
14013;SDS011;49110;52.584;13.408;2023-05-07T04:37:38;8.30;;;7.50;;
14013;SDS011;49110;52.584;13.408;2023-05-07T04:38:40;7.50;;;6.80;;
14013;SDS011;49110;52.584;13.408;2023-05-07T04:39:40;8.10;;;7.10;;
14013;SDS011;49110;52.584;13.408;2023-05-07T04:40:41;8.57;;;7.53;;
14013;SDS011;49110;52.584;13.408;2023-05-07T04:41:41;8.17;;;7.37;;
14013;SDS011;49110;52.584;13.408;2023-05-07T04:42:42;8.77;;;7.80;;
14013;SDS011;49110;52.584;13.408;2023-05-07T04:43:42;8.20;;;7.40;;
14013;SDS011;49110;52.584;13.408;2023-05-07T04:44:43;8.17;;;7.37;;
14013;SDS011;49110;52.584;13.408;2023-05-07T04:45:45;9.37;;;7.60;;
14013;SDS011;49110;52.584;13.408;2023-05-07T04:46:45;8.07;;;7.37;;
14013;SDS011;49110;52.584;13.408;2023-05-07T04:47:46;8.43;;;7.60;;
14013;SDS011;49110;52.584;13.408;2023-05-07T04:48:46;7.67;;;6.97;;
14013;SDS011;49110;52.584;13.408;2023-05-07T04:49:47;7.90;;;7.10;;
14013;SDS011;49110;52.584;13.408;2023-05-07T04:50:47;7.73;;;7.03;;
14013;SDS011;49110;52.584;13.408;2023-05-07T04:51:48;7.30;;;6.63;;
14013;SDS011;49110;52.584;13.408;2023-05-07T04:52:49;7.80;;;7.10;;
14013;SDS011;49110;52.584;13.408;2023-05-07T04:53:49;8.13;;;7.30;;
14013;SDS011;49110;52.584;13.408;2023-05-07T04:54:50;8.87;;;7.97;;
14013;SDS011;49110;52.584;13.408;2023-05-07T04:55:57;7.97;;;7.27;;
14013;SDS011;49110;52.584;13.408;2023-05-07T04:56:58;8.80;;;7.60;;
14013;SDS011;49110;52.584;13.408;2023-05-07T04:57:58;8.43;;;7.53;;
14013;SDS011;49110;52.584;13.408;2023-05-07T04:59:01;9.80;;;7.17;;
14013;SDS011;49110;52.584;13.408;2023-05-07T05:00:01;7.90;;;7.20;;
14013;SDS011;49110;52.584;13.408;2023-05-07T05:01:04;7.73;;;7.00;;
14013;SDS011;49110;52.584;13.408;2023-05-07T05:02:05;7.30;;;6.60;;
14013;SDS011;49110;52.584;13.408;2023-05-07T05:03:08;8.57;;;7.67;;
14013;SDS011;49110;52.584;13.408;2023-05-07T05:04:09;7.73;;;7.10;;
14013;SDS011;49110;52.584;13.408;2023-05-07T05:05:10;8.87;;;7.97;;
14013;SDS011;49110;52.584;13.408;2023-05-07T05:06:11;8.17;;;7.47;;
14013;SDS011;49110;52.584;13.408;2023-05-07T05:07:11;8.33;;;7.63;;
14013;SDS011;49110;52.584;13.408;2023-05-07T05:08:12;8.13;;;7.33;;
14013;SDS011;49110;52.584;13.408;2023-05-07T05:09:12;8.53;;;7.73;;
14013;SDS011;49110;52.584;13.408;2023-05-07T05:10:13;8.00;;;7.10;;
14013;SDS011;49110;52.584;13.408;2023-05-07T05:11:13;8.53;;;7.67;;
14013;SDS011;49110;52.584;13.408;2023-05-07T05:12:14;7.77;;;7.03;;
14013;SDS011;49110;52.584;13.408;2023-05-07T05:13:15;8.00;;;7.30;;
14013;SDS011;49110;52.584;13.408;2023-05-07T05:14:16;8.10;;;7.27;;
14013;SDS011;49110;52.584;13.408;2023-05-07T05:15:16;8.00;;;7.20;;
14013;SDS011;49110;52.584;13.408;2023-05-07T05:16:17;7.47;;;6.77;;
14013;SDS011;49110;52.584;13.408;2023-05-07T05:17:17;8.57;;;7.07;;
14013;SDS011;49110;52.584;13.408;2023-05-07T05:18:17;7.97;;;7.03;;
14013;SDS011;49110;52.584;13.408;2023-05-07T05:19:18;7.93;;;7.23;;
14013;SDS011;49110;52.584;13.408;2023-05-07T05:20:18;8.90;;;6.90;;
14013;SDS011;49110;52.584;13.408;2023-05-07T05:21:19;8.00;;;7.20;;
14013;SDS011;49110;52.584;13.408;2023-05-07T05:22:20;7.63;;;6.93;;
14013;SDS011;49110;52.584;13.408;2023-05-07T05:23:20;7.30;;;6.70;;
14013;SDS011;49110;52.584;13.408;2023-05-07T05:24:21;7.20;;;6.53;;
14013;SDS011;49110;52.584;13.408;2023-05-07T05:25:21;7.30;;;6.60;;
14013;SDS011;49110;52.584;13.408;2023-05-07T05:26:22;7.93;;;6.97;;
14013;SDS011;49110;52.584;13.408;2023-05-07T05:27:22;7.83;;;7.03;;
14013;SDS011;49110;52.584;13.408;2023-05-07T05:28:23;8.07;;;7.17;;
14013;SDS011;49110;52.584;13.408;2023-05-07T05:29:24;7.80;;;7.10;;
14013;SDS011;49110;52.584;13.408;2023-05-07T05:30:24;8.90;;;7.03;;
14013;SDS011;49110;52.584;13.408;2023-05-07T05:31:24;7.00;;;6.40;;
14013;SDS011;49110;52.584;13.408;2023-05-07T05:32:25;7.27;;;6.67;;
14013;SDS011;49110;52.584;13.408;2023-05-07T05:33:25;7.50;;;6.80;;
14013;SDS011;49110;52.584;13.408;2023-05-07T05:34:26;7.73;;;6.87;;
14013;SDS011;49110;52.584;13.408;2023-05-07T05:35:29;10.67;;;7.10;;
14013;SDS011;49110;52.584;13.408;2023-05-07T05:36:29;7.43;;;6.73;;
14013;SDS011;49110;52.584;13.408;2023-05-07T05:37:30;8.07;;;7.23;;
14013;SDS011;49110;52.584;13.408;2023-05-07T05:38:31;7.43;;;6.70;;
14013;SDS011;49110;52.584;13.408;2023-05-07T05:39:31;7.37;;;6.63;;
14013;SDS011;49110;52.584;13.408;2023-05-07T05:40:32;7.30;;;6.40;;
14013;SDS011;49110;52.584;13.408;2023-05-07T05:41:33;8.83;;;6.70;;
14013;SDS011;49110;52.584;13.408;2023-05-07T05:42:33;8.90;;;7.07;;
14013;SDS011;49110;52.584;13.408;2023-05-07T05:43:34;6.97;;;6.37;;
14013;SDS011;49110;52.584;13.408;2023-05-07T05:44:34;8.80;;;7.53;;
14013;SDS011;49110;52.584;13.408;2023-05-07T05:45:35;7.77;;;6.97;;
14013;SDS011;49110;52.584;13.408;2023-05-07T05:46:35;7.80;;;7.20;;
14013;SDS011;49110;52.584;13.408;2023-05-07T05:47:36;7.87;;;6.60;;
14013;SDS011;49110;52.584;13.408;2023-05-07T05:48:37;8.57;;;7.07;;
14013;SDS011;49110;52.584;13.408;2023-05-07T05:49:37;7.20;;;6.60;;
14013;SDS011;49110;52.584;13.408;2023-05-07T05:50:38;8.10;;;7.30;;
14013;SDS011;49110;52.584;13.408;2023-05-07T05:51:39;7.90;;;7.20;;
14013;SDS011;49110;52.584;13.408;2023-05-07T05:52:40;8.87;;;7.13;;
14013;SDS011;49110;52.584;13.408;2023-05-07T05:53:40;7.57;;;6.87;;
14013;SDS011;49110;52.584;13.408;2023-05-07T05:54:41;8.27;;;6.77;;
14013;SDS011;49110;52.584;13.408;2023-05-07T05:55:41;7.90;;;7.10;;
14013;SDS011;49110;52.584;13.408;2023-05-07T05:56:43;8.13;;;7.30;;